Atwood, Alabama
Current Conditions -  °F | °C
As of 11:56 AM on Sunday 21 Dec 2014 (Local Time) from K1M4 Reporting Station
Overcast Overcast  
Wind Chill:   Ceiling: 2300
Heat Index:   Visibility: 7mi
Dew Point:   Wind: 0mph
Humidity: 82%   Direction: NA
Pressure: 30.15"   Gusts: NA
Location:  34.3479°N, 87.9692°W
Report Text: K1M4 211756Z AUTO 00000KT 7SM OVC023 07/04 A3015 RMK AO2 58015 T00720044 10072 21033 SLP221 $
Loading
Personal Weather Stations






























Interactive Weather Map New forecast layout! Learn more

10-Day Weather Forecast

Advertisements
Track Severe Weather on mobile